sensor_id;sensor_type;location;lat;lon;timestamp;P1;durP1;ratioP1;P2;durP2;ratioP2
5499;SDS011;2772;42.700;23.304;2022-09-03T00:02:18;229.97;;;105.03;;
5499;SDS011;2772;42.700;23.304;2022-09-03T00:04:50;162.57;;;75.87;;
5499;SDS011;2772;42.700;23.304;2022-09-03T00:07:25;46.93;;;25.27;;
5499;SDS011;2772;42.700;23.304;2022-09-03T00:09:59;94.70;;;47.57;;
5499;SDS011;2772;42.700;23.304;2022-09-03T00:12:31;15.00;;;9.27;;
5499;SDS011;2772;42.700;23.304;2022-09-03T00:15:05;144.67;;;65.33;;
5499;SDS011;2772;42.700;23.304;2022-09-03T00:17:34;46.00;;;24.40;;
5499;SDS011;2772;42.700;23.304;2022-09-03T00:20:07;11.10;;;8.10;;
5499;SDS011;2772;42.700;23.304;2022-09-03T00:22:40;14.90;;;9.87;;
5499;SDS011;2772;42.700;23.304;2022-09-03T00:25:12;16.77;;;10.77;;
5499;SDS011;2772;42.700;23.304;2022-09-03T00:27:44;8.15;;;7.32;;
5499;SDS011;2772;42.700;23.304;2022-09-03T00:30:17;50.97;;;25.60;;
5499;SDS011;2772;42.700;23.304;2022-09-03T00:32:45;16.73;;;10.70;;
5499;SDS011;2772;42.700;23.304;2022-09-03T00:35:19;7.67;;;6.90;;
5499;SDS011;2772;42.700;23.304;2022-09-03T00:37:51;9.23;;;6.60;;
5499;SDS011;2772;42.700;23.304;2022-09-03T00:43:13;51.27;;;19.40;;
5499;SDS011;2772;42.700;23.304;2022-09-03T00:45:52;20.40;;;12.23;;
5499;SDS011;2772;42.700;23.304;2022-09-03T00:48:31;10.03;;;8.17;;
5499;SDS011;2772;42.700;23.304;2022-09-03T00:51:11;9.40;;;7.00;;
5499;SDS011;2772;42.700;23.304;2022-09-03T00:53:51;12.30;;;6.60;;
5499;SDS011;2772;42.700;23.304;2022-09-03T00:56:26;10.97;;;8.13;;
5499;SDS011;2772;42.700;23.304;2022-09-03T00:59:02;8.10;;;6.57;;
5499;SDS011;2772;42.700;23.304;2022-09-03T01:01:39;19.47;;;8.70;;
5499;SDS011;2772;42.700;23.304;2022-09-03T01:04:27;10.63;;;7.70;;
5499;SDS011;2772;42.700;23.304;2022-09-03T01:07:04;10.10;;;7.80;;
5499;SDS011;2772;42.700;23.304;2022-09-03T01:09:43;9.93;;;7.47;;
5499;SDS011;2772;42.700;23.304;2022-09-03T01:12:21;6.80;;;6.20;;
5499;SDS011;2772;42.700;23.304;2022-09-03T01:15:02;8.33;;;7.00;;
5499;SDS011;2772;42.700;23.304;2022-09-03T01:17:40;9.70;;;6.97;;
5499;SDS011;2772;42.700;23.304;2022-09-03T01:20:23;7.67;;;6.87;;
5499;SDS011;2772;42.700;23.304;2022-09-03T01:23:10;10.77;;;7.07;;
5499;SDS011;2772;42.700;23.304;2022-09-03T01:26:02;7.83;;;7.03;;
5499;SDS011;2772;42.700;23.304;2022-09-03T01:28:45;12.23;;;6.77;;
5499;SDS011;2772;42.700;23.304;2022-09-03T01:31:24;7.80;;;7.00;;
5499;SDS011;2772;42.700;23.304;2022-09-03T01:34:04;8.47;;;7.20;;
5499;SDS011;2772;42.700;23.304;2022-09-03T01:36:43;8.83;;;6.90;;
5499;SDS011;2772;42.700;23.304;2022-09-03T01:39:16;9.60;;;6.70;;
5499;SDS011;2772;42.700;23.304;2022-09-03T01:41:53;11.13;;;7.70;;
5499;SDS011;2772;42.700;23.304;2022-09-03T01:44:45;9.13;;;7.17;;
5499;SDS011;2772;42.700;23.304;2022-09-03T01:47:33;8.00;;;7.00;;
5499;SDS011;2772;42.700;23.304;2022-09-03T01:50:18;8.90;;;7.03;;
5499;SDS011;2772;42.700;23.304;2022-09-03T01:53:00;10.83;;;7.10;;
5499;SDS011;2772;42.700;23.304;2022-09-03T01:55:31;9.03;;;7.27;;
5499;SDS011;2772;42.700;23.304;2022-09-03T01:58:04;8.53;;;7.20;;
5499;SDS011;2772;42.700;23.304;2022-09-03T02:00:36;9.27;;;6.90;;
5499;SDS011;2772;42.700;23.304;2022-09-03T02:03:08;8.13;;;7.27;;
5499;SDS011;2772;42.700;23.304;2022-09-03T02:05:37;8.30;;;7.30;;
5499;SDS011;2772;42.700;23.304;2022-09-03T02:08:07;9.87;;;7.63;;
5499;SDS011;2772;42.700;23.304;2022-09-03T02:10:37;10.37;;;7.17;;
5499;SDS011;2772;42.700;23.304;2022-09-03T02:13:08;9.90;;;7.80;;
5499;SDS011;2772;42.700;23.304;2022-09-03T02:15:40;9.57;;;7.10;;
5499;SDS011;2772;42.700;23.304;2022-09-03T02:18:12;10.03;;;7.40;;
5499;SDS011;2772;42.700;23.304;2022-09-03T02:20:42;8.10;;;7.30;;
5499;SDS011;2772;42.700;23.304;2022-09-03T02:23:12;8.60;;;7.70;;
5499;SDS011;2772;42.700;23.304;2022-09-03T02:25:40;8.73;;;7.83;;
5499;SDS011;2772;42.700;23.304;2022-09-03T02:28:10;9.90;;;8.07;;
5499;SDS011;2772;42.700;23.304;2022-09-03T02:30:39;10.37;;;7.60;;
5499;SDS011;2772;42.700;23.304;2022-09-03T02:33:06;12.03;;;7.93;;
5499;SDS011;2772;42.700;23.304;2022-09-03T02:35:33;11.00;;;7.87;;
5499;SDS011;2772;42.700;23.304;2022-09-03T02:38:08;11.30;;;8.10;;
5499;SDS011;2772;42.700;23.304;2022-09-03T02:40:36;11.50;;;7.90;;
5499;SDS011;2772;42.700;23.304;2022-09-03T02:43:03;11.47;;;8.33;;
5499;SDS011;2772;42.700;23.304;2022-09-03T02:45:33;10.63;;;7.93;;
5499;SDS011;2772;42.700;23.304;2022-09-03T02:48:07;12.53;;;8.47;;
5499;SDS011;2772;42.700;23.304;2022-09-03T02:50:39;10.20;;;8.10;;
5499;SDS011;2772;42.700;23.304;2022-09-03T02:53:06;11.67;;;8.30;;
5499;SDS011;2772;42.700;23.304;2022-09-03T02:55:33;12.33;;;8.87;;
5499;SDS011;2772;42.700;23.304;2022-09-03T02:58:00;10.00;;;8.07;;
5499;SDS011;2772;42.700;23.304;2022-09-03T03:00:29;10.40;;;8.70;;
5499;SDS011;2772;42.700;23.304;2022-09-03T03:02:56;9.90;;;8.53;;
5499;SDS011;2772;42.700;23.304;2022-09-03T03:05:25;15.80;;;8.10;;
5499;SDS011;2772;42.700;23.304;2022-09-03T03:07:58;12.53;;;7.87;;
5499;SDS011;2772;42.700;23.304;2022-09-03T03:10:25;9.70;;;8.20;;
5499;SDS011;2772;42.700;23.304;2022-09-03T03:12:52;13.57;;;8.50;;
5499;SDS011;2772;42.700;23.304;2022-09-03T03:15:19;10.90;;;8.20;;
5499;SDS011;2772;42.700;23.304;2022-09-03T03:17:46;12.40;;;8.17;;
5499;SDS011;2772;42.700;23.304;2022-09-03T03:20:13;8.90;;;7.70;;
5499;SDS011;2772;42.700;23.304;2022-09-03T03:22:41;9.30;;;8.20;;
5499;SDS011;2772;42.700;23.304;2022-09-03T03:25:08;8.70;;;7.43;;
5499;SDS011;2772;42.700;23.304;2022-09-03T03:27:35;9.03;;;8.10;;
5499;SDS011;2772;42.700;23.304;2022-09-03T03:30:06;9.10;;;7.37;;
5499;SDS011;2772;42.700;23.304;2022-09-03T03:32:35;13.90;;;8.30;;
5499;SDS011;2772;42.700;23.304;2022-09-03T03:35:02;14.40;;;9.20;;
5499;SDS011;2772;42.700;23.304;2022-09-03T03:37:30;11.30;;;8.40;;
5499;SDS011;2772;42.700;23.304;2022-09-03T03:40:01;11.67;;;8.23;;
5499;SDS011;2772;42.700;23.304;2022-09-03T03:42:28;11.80;;;7.93;;
5499;SDS011;2772;42.700;23.304;2022-09-03T03:44:57;14.67;;;8.30;;
5499;SDS011;2772;42.700;23.304;2022-09-03T03:47:26;16.80;;;7.97;;
5499;SDS011;2772;42.700;23.304;2022-09-03T03:49:55;12.50;;;8.17;;
5499;SDS011;2772;42.700;23.304;2022-09-03T03:52:22;8.97;;;7.83;;
5499;SDS011;2772;42.700;23.304;2022-09-03T03:54:48;15.47;;;8.73;;
5499;SDS011;2772;42.700;23.304;2022-09-03T03:57:17;11.23;;;9.23;;
5499;SDS011;2772;42.700;23.304;2022-09-03T03:59:44;9.80;;;7.70;;
5499;SDS011;2772;42.700;23.304;2022-09-03T04:02:11;11.67;;;8.40;;
5499;SDS011;2772;42.700;23.304;2022-09-03T04:04:38;12.45;;;9.40;;
5499;SDS011;2772;42.700;23.304;2022-09-03T04:07:05;9.70;;;8.23;;
5499;SDS011;2772;42.700;23.304;2022-09-03T04:09:32;10.60;;;8.70;;
5499;SDS011;2772;42.700;23.304;2022-09-03T04:12:00;16.03;;;8.93;;
5499;SDS011;2772;42.700;23.304;2022-09-03T04:14:29;22.87;;;8.87;;
5499;SDS011;2772;42.700;23.304;2022-09-03T04:16:55;13.70;;;8.60;;
5499;SDS011;2772;42.700;23.304;2022-09-03T04:19:22;15.00;;;8.23;;
5499;SDS011;2772;42.700;23.304;2022-09-03T04:21:49;11.77;;;8.53;;
5499;SDS011;2772;42.700;23.304;2022-09-03T04:24:16;10.70;;;8.63;;
5499;SDS011;2772;42.700;23.304;2022-09-03T04:26:43;13.63;;;8.70;;
5499;SDS011;2772;42.700;23.304;2022-09-03T04:29:11;12.50;;;8.53;;
5499;SDS011;2772;42.700;23.304;2022-09-03T04:31:39;12.20;;;8.47;;
5499;SDS011;2772;42.700;23.304;2022-09-03T04:34:27;13.53;;;8.80;;
5499;SDS011;2772;42.700;23.304;2022-09-03T04:36:55;12.57;;;9.00;;
5499;SDS011;2772;42.700;23.304;2022-09-03T04:39:23;10.07;;;7.93;;
5499;SDS011;2772;42.700;23.304;2022-09-03T04:41:49;13.73;;;7.70;;
5499;SDS011;2772;42.700;23.304;2022-09-03T04:44:16;11.93;;;8.47;;
5499;SDS011;2772;42.700;23.304;2022-09-03T04:46:45;14.43;;;8.73;;
5499;SDS011;2772;42.700;23.304;2022-09-03T04:49:12;10.97;;;8.80;;
5499;SDS011;2772;42.700;23.304;2022-09-03T04:51:39;21.73;;;7.57;;
5499;SDS011;2772;42.700;23.304;2022-09-03T04:54:06;8.57;;;7.77;;
5499;SDS011;2772;42.700;23.304;2022-09-03T04:56:34;11.20;;;8.80;;
5499;SDS011;2772;42.700;23.304;2022-09-03T04:59:02;12.33;;;8.13;;
5499;SDS011;2772;42.700;23.304;2022-09-03T05:01:31;11.73;;;8.93;;
5499;SDS011;2772;42.700;23.304;2022-09-03T05:04:01;13.20;;;8.40;;
5499;SDS011;2772;42.700;23.304;2022-09-03T05:06:29;13.47;;;8.70;;
5499;SDS011;2772;42.700;23.304;2022-09-03T05:08:57;10.80;;;7.93;;
5499;SDS011;2772;42.700;23.304;2022-09-03T05:11:25;13.20;;;7.40;;
5499;SDS011;2772;42.700;23.304;2022-09-03T05:13:53;11.17;;;7.47;;
5499;SDS011;2772;42.700;23.304;2022-09-03T05:16:22;11.03;;;8.17;;
5499;SDS011;2772;42.700;23.304;2022-09-03T05:18:52;9.70;;;8.03;;
5499;SDS011;2772;42.700;23.304;2022-09-03T05:21:21;9.10;;;8.10;;
5499;SDS011;2772;42.700;23.304;2022-09-03T05:23:49;17.00;;;9.57;;
5499;SDS011;2772;42.700;23.304;2022-09-03T05:26:17;12.47;;;9.00;;
5499;SDS011;2772;42.700;23.304;2022-09-03T05:28:46;13.77;;;9.93;;
5499;SDS011;2772;42.700;23.304;2022-09-03T05:31:14;12.83;;;7.70;;
5499;SDS011;2772;42.700;23.304;2022-09-03T05:33:44;11.67;;;8.77;;
5499;SDS011;2772;42.700;23.304;2022-09-03T05:36:13;9.70;;;7.80;;
5499;SDS011;2772;42.700;23.304;2022-09-03T05:38:42;11.53;;;8.20;;
5499;SDS011;2772;42.700;23.304;2022-09-03T05:41:11;8.83;;;7.50;;
5499;SDS011;2772;42.700;23.304;2022-09-03T05:43:38;10.20;;;8.23;;
5499;SDS011;2772;42.700;23.304;2022-09-03T05:46:06;8.90;;;7.40;;
5499;SDS011;2772;42.700;23.304;2022-09-03T05:48:35;8.73;;;7.70;;
5499;SDS011;2772;42.700;23.304;2022-09-03T05:51:04;11.27;;;8.27;;
5499;SDS011;2772;42.700;23.304;2022-09-03T05:53:33;16.43;;;7.90;;
5499;SDS011;2772;42.700;23.304;2022-09-03T05:56:05;11.43;;;7.80;;
5499;SDS011;2772;42.700;23.304;2022-09-03T05:58:35;8.87;;;7.00;;
5499;SDS011;2772;42.700;23.304;2022-09-03T06:01:08;8.73;;;7.77;;
5499;SDS011;2772;42.700;23.304;2022-09-03T06:03:36;9.17;;;7.40;;
5499;SDS011;2772;42.700;23.304;2022-09-03T06:06:03;11.23;;;8.70;;
5499;SDS011;2772;42.700;23.304;2022-09-03T06:08:31;8.23;;;7.13;;
5499;SDS011;2772;42.700;23.304;2022-09-03T06:10:58;10.93;;;7.50;;
5499;SDS011;2772;42.700;23.304;2022-09-03T06:13:27;11.53;;;8.90;;
5499;SDS011;2772;42.700;23.304;2022-09-03T06:15:55;17.80;;;7.63;;
5499;SDS011;2772;42.700;23.304;2022-09-03T06:18:22;12.20;;;7.90;;
5499;SDS011;2772;42.700;23.304;2022-09-03T06:20:52;12.07;;;9.83;;
5499;SDS011;2772;42.700;23.304;2022-09-03T06:23:19;26.47;;;14.97;;
5499;SDS011;2772;42.700;23.304;2022-09-03T06:25:46;11.30;;;8.80;;
5499;SDS011;2772;42.700;23.304;2022-09-03T06:28:13;10.80;;;8.27;;
5499;SDS011;2772;42.700;23.304;2022-09-03T06:30:41;14.40;;;9.47;;
5499;SDS011;2772;42.700;23.304;2022-09-03T06:33:08;19.40;;;10.30;;
5499;SDS011;2772;42.700;23.304;2022-09-03T06:35:35;14.53;;;9.20;;
5499;SDS011;2772;42.700;23.304;2022-09-03T06:38:02;9.50;;;7.23;;
5499;SDS011;2772;42.700;23.304;2022-09-03T06:40:30;14.47;;;9.10;;
5499;SDS011;2772;42.700;23.304;2022-09-03T06:42:57;14.30;;;8.20;;
5499;SDS011;2772;42.700;23.304;2022-09-03T06:45:27;7.90;;;7.03;;
5499;SDS011;2772;42.700;23.304;2022-09-03T06:47:56;8.47;;;7.53;;
5499;SDS011;2772;42.700;23.304;2022-09-03T06:50:22;7.53;;;6.40;;
5499;SDS011;2772;42.700;23.304;2022-09-03T06:52:50;10.40;;;8.13;;
5499;SDS011;2772;42.700;23.304;2022-09-03T06:55:19;8.93;;;7.40;;
5499;SDS011;2772;42.700;23.304;2022-09-03T06:57:46;15.93;;;8.60;;
5499;SDS011;2772;42.700;23.304;2022-09-03T07:00:14;9.73;;;7.60;;
5499;SDS011;2772;42.700;23.304;2022-09-03T07:02:41;8.97;;;7.90;;
5499;SDS011;2772;42.700;23.304;2022-09-03T07:05:10;7.83;;;7.03;;
5499;SDS011;2772;42.700;23.304;2022-09-03T07:07:37;10.80;;;9.30;;
5499;SDS011;2772;42.700;23.304;2022-09-03T07:10:04;10.20;;;7.40;;
5499;SDS011;2772;42.700;23.304;2022-09-03T07:12:33;9.63;;;7.47;;
5499;SDS011;2772;42.700;23.304;2022-09-03T07:15:01;12.80;;;9.67;;
5499;SDS011;2772;42.700;23.304;2022-09-03T07:17:28;18.30;;;8.30;;
5499;SDS011;2772;42.700;23.304;2022-09-03T07:19:55;13.73;;;8.33;;
5499;SDS011;2772;42.700;23.304;2022-09-03T07:22:23;12.80;;;9.50;;
5499;SDS011;2772;42.700;23.304;2022-09-03T07:24:52;8.63;;;7.83;;
5499;SDS011;2772;42.700;23.304;2022-09-03T07:27:19;12.87;;;9.30;;
5499;SDS011;2772;42.700;23.304;2022-09-03T07:29:46;8.27;;;6.83;;
5499;SDS011;2772;42.700;23.304;2022-09-03T07:32:12;15.17;;;10.57;;
5499;SDS011;2772;42.700;23.304;2022-09-03T07:34:39;12.47;;;9.10;;
5499;SDS011;2772;42.700;23.304;2022-09-03T07:37:06;12.17;;;8.10;;
5499;SDS011;2772;42.700;23.304;2022-09-03T07:39:34;8.00;;;7.30;;
5499;SDS011;2772;42.700;23.304;2022-09-03T07:42:01;10.53;;;8.57;;
5499;SDS011;2772;42.700;23.304;2022-09-03T07:44:28;23.93;;;9.90;;
5499;SDS011;2772;42.700;23.304;2022-09-03T07:46:55;9.73;;;8.77;;
5499;SDS011;2772;42.700;23.304;2022-09-03T07:49:22;13.60;;;9.07;;
5499;SDS011;2772;42.700;23.304;2022-09-03T07:51:49;9.10;;;7.50;;
5499;SDS011;2772;42.700;23.304;2022-09-03T07:54:18;9.07;;;7.67;;
5499;SDS011;2772;42.700;23.304;2022-09-03T07:56:47;9.20;;;7.30;;
5499;SDS011;2772;42.700;23.304;2022-09-03T07:59:14;13.20;;;10.43;;
5499;SDS011;2772;42.700;23.304;2022-09-03T08:01:40;11.53;;;8.20;;
5499;SDS011;2772;42.700;23.304;2022-09-03T08:04:08;9.17;;;8.27;;
5499;SDS011;2772;42.700;23.304;2022-09-03T08:06:35;14.70;;;10.30;;
5499;SDS011;2772;42.700;23.304;2022-09-03T08:09:04;33.80;;;20.00;;
5499;SDS011;2772;42.700;23.304;2022-09-03T08:11:32;16.40;;;11.50;;
5499;SDS011;2772;42.700;23.304;2022-09-03T08:14:03;12.97;;;7.80;;
5499;SDS011;2772;42.700;23.304;2022-09-03T08:16:32;7.63;;;6.83;;
5499;SDS011;2772;42.700;23.304;2022-09-03T08:19:00;11.63;;;8.57;;
5499;SDS011;2772;42.700;23.304;2022-09-03T08:21:27;10.07;;;6.80;;
5499;SDS011;2772;42.700;23.304;2022-09-03T08:23:55;8.03;;;7.30;;
5499;SDS011;2772;42.700;23.304;2022-09-03T08:26:27;21.10;;;13.20;;
5499;SDS011;2772;42.700;23.304;2022-09-03T08:28:55;18.37;;;10.17;;
5499;SDS011;2772;42.700;23.304;2022-09-03T08:31:23;12.43;;;9.50;;
5499;SDS011;2772;42.700;23.304;2022-09-03T08:33:52;13.00;;;9.50;;
5499;SDS011;2772;42.700;23.304;2022-09-03T08:36:20;6.93;;;6.23;;
5499;SDS011;2772;42.700;23.304;2022-09-03T08:38:49;12.90;;;7.07;;
5499;SDS011;2772;42.700;23.304;2022-09-03T08:41:20;7.43;;;6.83;;
5499;SDS011;2772;42.700;23.304;2022-09-03T08:44:01;9.03;;;8.13;;
5499;SDS011;2772;42.700;23.304;2022-09-03T08:46:43;5.67;;;5.00;;
5499;SDS011;2772;42.700;23.304;2022-09-03T08:49:18;7.50;;;6.43;;
5499;SDS011;2772;42.700;23.304;2022-09-03T08:51:49;13.30;;;11.43;;
5499;SDS011;2772;42.700;23.304;2022-09-03T08:54:19;7.90;;;7.20;;
5499;SDS011;2772;42.700;23.304;2022-09-03T08:56:50;16.53;;;10.40;;
5499;SDS011;2772;42.700;23.304;2022-09-03T08:59:18;17.73;;;12.27;;
5499;SDS011;2772;42.700;23.304;2022-09-03T09:01:49;30.73;;;17.80;;
5499;SDS011;2772;42.700;23.304;2022-09-03T09:04:26;13.00;;;8.93;;
5499;SDS011;2772;42.700;23.304;2022-09-03T09:07:05;8.70;;;7.13;;
5499;SDS011;2772;42.700;23.304;2022-09-03T09:09:38;6.27;;;5.67;;
5499;SDS011;2772;42.700;23.304;2022-09-03T09:12:15;12.13;;;10.83;;
5499;SDS011;2772;42.700;23.304;2022-09-03T09:14:54;6.40;;;5.90;;
5499;SDS011;2772;42.700;23.304;2022-09-03T09:17:35;4.90;;;4.60;;
5499;SDS011;2772;42.700;23.304;2022-09-03T09:20:17;11.67;;;7.60;;
5499;SDS011;2772;42.700;23.304;2022-09-03T09:22:52;5.57;;;5.17;;
5499;SDS011;2772;42.700;23.304;2022-09-03T09:25:23;6.77;;;6.17;;
5499;SDS011;2772;42.700;23.304;2022-09-03T09:27:53;6.70;;;6.10;;
5499;SDS011;2772;42.700;23.304;2022-09-03T09:30:24;7.50;;;6.90;;
5499;SDS011;2772;42.700;23.304;2022-09-03T09:32:52;7.63;;;6.93;;
5499;SDS011;2772;42.700;23.304;2022-09-03T09:35:20;8.37;;;7.60;;
5499;SDS011;2772;42.700;23.304;2022-09-03T09:37:50;6.13;;;5.70;;
5499;SDS011;2772;42.700;23.304;2022-09-03T09:40:28;6.90;;;6.20;;
5499;SDS011;2772;42.700;23.304;2022-09-03T09:43:03;13.73;;;9.70;;
5499;SDS011;2772;42.700;23.304;2022-09-03T09:45:35;14.03;;;7.47;;
5499;SDS011;2772;42.700;23.304;2022-09-03T09:48:12;6.40;;;5.90;;
5499;SDS011;2772;42.700;23.304;2022-09-03T09:50:43;12.50;;;6.67;;
5499;SDS011;2772;42.700;23.304;2022-09-03T09:53:10;5.73;;;5.23;;
5499;SDS011;2772;42.700;23.304;2022-09-03T09:55:53;14.33;;;6.40;;
5499;SDS011;2772;42.700;23.304;2022-09-03T09:58:22;8.33;;;6.60;;
5499;SDS011;2772;42.700;23.304;2022-09-03T10:00:57;7.13;;;6.50;;
5499;SDS011;2772;42.700;23.304;2022-09-03T10:03:28;18.63;;;8.23;;
5499;SDS011;2772;42.700;23.304;2022-09-03T10:06:05;6.00;;;5.60;;
5499;SDS011;2772;42.700;23.304;2022-09-03T10:08:52;6.63;;;6.13;;
5499;SDS011;2772;42.700;23.304;2022-09-03T10:11:31;8.60;;;6.87;;
5499;SDS011;2772;42.700;23.304;2022-09-03T10:14:04;7.17;;;6.57;;
5499;SDS011;2772;42.700;23.304;2022-09-03T10:16:39;18.27;;;9.30;;
5499;SDS011;2772;42.700;23.304;2022-09-03T10:19:16;7.83;;;6.53;;
5499;SDS011;2772;42.700;23.304;2022-09-03T10:21:47;5.90;;;5.50;;
5499;SDS011;2772;42.700;23.304;2022-09-03T10:24:28;7.27;;;6.57;;
5499;SDS011;2772;42.700;23.304;2022-09-03T10:27:05;9.40;;;8.40;;
5499;SDS011;2772;42.700;23.304;2022-09-03T10:29:35;8.50;;;5.77;;
5499;SDS011;2772;42.700;23.304;2022-09-03T10:32:08;12.33;;;8.00;;
5499;SDS011;2772;42.700;23.304;2022-09-03T10:34:51;7.10;;;6.50;;
5499;SDS011;2772;42.700;23.304;2022-09-03T10:37:26;7.90;;;7.10;;
5499;SDS011;2772;42.700;23.304;2022-09-03T10:40:09;6.87;;;6.27;;
5499;SDS011;2772;42.700;23.304;2022-09-03T10:42:58;6.77;;;6.10;;
5499;SDS011;2772;42.700;23.304;2022-09-03T10:45:34;6.90;;;6.20;;
5499;SDS011;2772;42.700;23.304;2022-09-03T10:48:09;6.00;;;5.60;;
5499;SDS011;2772;42.700;23.304;2022-09-03T10:50:52;6.47;;;5.87;;
5499;SDS011;2772;42.700;23.304;2022-09-03T10:53:30;7.13;;;6.40;;
5499;SDS011;2772;42.700;23.304;2022-09-03T10:56:15;6.60;;;6.10;;
5499;SDS011;2772;42.700;23.304;2022-09-03T10:58:54;6.20;;;5.70;;
5499;SDS011;2772;42.700;23.304;2022-09-03T11:01:30;7.80;;;7.10;;
5499;SDS011;2772;42.700;23.304;2022-09-03T11:04:11;31.00;;;7.30;;
5499;SDS011;2772;42.700;23.304;2022-09-03T11:06:50;7.27;;;6.50;;
5499;SDS011;2772;42.700;23.304;2022-09-03T11:09:21;9.70;;;7.13;;
5499;SDS011;2772;42.700;23.304;2022-09-03T11:11:52;6.50;;;5.90;;
5499;SDS011;2772;42.700;23.304;2022-09-03T11:14:27;5.03;;;4.73;;
5499;SDS011;2772;42.700;23.304;2022-09-03T11:16:59;6.80;;;6.10;;
5499;SDS011;2772;42.700;23.304;2022-09-03T11:19:33;6.97;;;6.37;;
5499;SDS011;2772;42.700;23.304;2022-09-03T11:22:05;6.20;;;5.70;;
5499;SDS011;2772;42.700;23.304;2022-09-03T11:24:33;5.83;;;5.43;;
5499;SDS011;2772;42.700;23.304;2022-09-03T11:27:09;6.10;;;5.53;;
5499;SDS011;2772;42.700;23.304;2022-09-03T11:29:51;5.40;;;5.00;;
5499;SDS011;2772;42.700;23.304;2022-09-03T11:32:25;6.10;;;5.53;;
5499;SDS011;2772;42.700;23.304;2022-09-03T11:35:01;6.13;;;5.73;;
5499;SDS011;2772;42.700;23.304;2022-09-03T11:37:45;6.80;;;6.03;;
5499;SDS011;2772;42.700;23.304;2022-09-03T11:40:18;18.67;;;5.70;;
5499;SDS011;2772;42.700;23.304;2022-09-03T11:42:46;6.80;;;6.13;;
5499;SDS011;2772;42.700;23.304;2022-09-03T11:45:19;8.53;;;7.63;;
5499;SDS011;2772;42.700;23.304;2022-09-03T11:47:49;8.00;;;6.33;;
5499;SDS011;2772;42.700;23.304;2022-09-03T11:50:19;6.27;;;5.77;;
5499;SDS011;2772;42.700;23.304;2022-09-03T11:52:50;7.97;;;6.10;;
5499;SDS011;2772;42.700;23.304;2022-09-03T11:55:28;7.43;;;6.20;;
5499;SDS011;2772;42.700;23.304;2022-09-03T11:57:58;7.63;;;6.87;;
5499;SDS011;2772;42.700;23.304;2022-09-03T12:00:42;12.37;;;7.80;;
5499;SDS011;2772;42.700;23.304;2022-09-03T12:03:12;8.73;;;6.40;;
5499;SDS011;2772;42.700;23.304;2022-09-03T12:05:45;7.97;;;7.17;;
5499;SDS011;2772;42.700;23.304;2022-09-03T12:08:33;11.10;;;7.10;;
5499;SDS011;2772;42.700;23.304;2022-09-03T12:11:25;7.20;;;6.50;;
5499;SDS011;2772;42.700;23.304;2022-09-03T12:14:07;8.17;;;6.90;;
5499;SDS011;2772;42.700;23.304;2022-09-03T12:16:48;7.03;;;6.33;;
5499;SDS011;2772;42.700;23.304;2022-09-03T12:19:25;8.20;;;7.40;;
5499;SDS011;2772;42.700;23.304;2022-09-03T12:21:58;11.40;;;6.37;;
5499;SDS011;2772;42.700;23.304;2022-09-03T12:24:30;6.63;;;6.03;;
5499;SDS011;2772;42.700;23.304;2022-09-03T12:27:02;8.30;;;7.50;;
5499;SDS011;2772;42.700;23.304;2022-09-03T12:29:30;7.50;;;6.90;;
5499;SDS011;2772;42.700;23.304;2022-09-03T12:32:04;6.83;;;6.23;;
5499;SDS011;2772;42.700;23.304;2022-09-03T12:34:33;6.00;;;5.50;;
5499;SDS011;2772;42.700;23.304;2022-09-03T12:37:00;8.13;;;6.63;;
5499;SDS011;2772;42.700;23.304;2022-09-03T12:39:31;7.57;;;6.97;;
5499;SDS011;2772;42.700;23.304;2022-09-03T12:41:59;11.50;;;7.20;;
5499;SDS011;2772;42.700;23.304;2022-09-03T12:44:31;6.80;;;6.20;;
5499;SDS011;2772;42.700;23.304;2022-09-03T12:47:08;6.00;;;5.50;;
5499;SDS011;2772;42.700;23.304;2022-09-03T12:49:38;7.00;;;6.30;;
5499;SDS011;2772;42.700;23.304;2022-09-03T12:52:07;5.33;;;4.93;;
5499;SDS011;2772;42.700;23.304;2022-09-03T12:54:45;5.20;;;4.87;;
5499;SDS011;2772;42.700;23.304;2022-09-03T12:57:17;5.33;;;4.97;;
5499;SDS011;2772;42.700;23.304;2022-09-03T12:59:47;6.37;;;5.70;;
5499;SDS011;2772;42.700;23.304;2022-09-03T13:02:19;6.00;;;5.40;;
5499;SDS011;2772;42.700;23.304;2022-09-03T13:04:51;6.00;;;5.50;;
5499;SDS011;2772;42.700;23.304;2022-09-03T13:07:20;7.90;;;6.33;;
5499;SDS011;2772;42.700;23.304;2022-09-03T13:09:58;5.50;;;5.10;;
5499;SDS011;2772;42.700;23.304;2022-09-03T13:12:29;4.67;;;4.37;;
5499;SDS011;2772;42.700;23.304;2022-09-03T13:15:04;7.37;;;6.43;;
5499;SDS011;2772;42.700;23.304;2022-09-03T13:20:50;6.40;;;5.77;;
5499;SDS011;2772;42.700;23.304;2022-09-03T13:23:31;4.13;;;3.83;;
5499;SDS011;2772;42.700;23.304;2022-09-03T13:26:08;3.70;;;3.50;;
5499;SDS011;2772;42.700;23.304;2022-09-03T13:28:53;6.17;;;4.90;;
5499;SDS011;2772;42.700;23.304;2022-09-03T13:31:34;3.97;;;3.77;;
5499;SDS011;2772;42.700;23.304;2022-09-03T13:34:04;5.30;;;4.87;;
5499;SDS011;2772;42.700;23.304;2022-09-03T13:36:37;5.93;;;3.27;;
5499;SDS011;2772;42.700;23.304;2022-09-03T13:39:15;3.63;;;3.33;;
5499;SDS011;2772;42.700;23.304;2022-09-03T13:41:52;3.57;;;3.37;;
5499;SDS011;2772;42.700;23.304;2022-09-03T13:44:23;5.47;;;4.73;;
5499;SDS011;2772;42.700;23.304;2022-09-03T13:47:02;4.20;;;4.00;;
5499;SDS011;2772;42.700;23.304;2022-09-03T13:49:36;4.30;;;4.00;;
5499;SDS011;2772;42.700;23.304;2022-09-03T13:52:26;6.07;;;4.10;;
5499;SDS011;2772;42.700;23.304;2022-09-03T13:54:59;5.10;;;4.60;;
5499;SDS011;2772;42.700;23.304;2022-09-03T13:57:36;3.50;;;3.30;;
5499;SDS011;2772;42.700;23.304;2022-09-03T14:00:11;3.50;;;3.30;;
5499;SDS011;2772;42.700;23.304;2022-09-03T14:02:49;5.20;;;4.80;;
5499;SDS011;2772;42.700;23.304;2022-09-03T14:05:22;4.70;;;4.40;;
5499;SDS011;2772;42.700;23.304;2022-09-03T14:08:04;4.43;;;3.80;;
5499;SDS011;2772;42.700;23.304;2022-09-03T14:13:29;5.03;;;4.63;;
5499;SDS011;2772;42.700;23.304;2022-09-03T14:16:06;4.43;;;4.10;;
5499;SDS011;2772;42.700;23.304;2022-09-03T14:18:40;4.77;;;4.47;;
5499;SDS011;2772;42.700;23.304;2022-09-03T14:21:15;6.00;;;4.23;;
5499;SDS011;2772;42.700;23.304;2022-09-03T14:23:47;6.80;;;5.45;;
5499;SDS011;2772;42.700;23.304;2022-09-03T14:26:21;5.80;;;5.30;;
5499;SDS011;2772;42.700;23.304;2022-09-03T14:28:58;5.47;;;5.00;;
5499;SDS011;2772;42.700;23.304;2022-09-03T14:31:31;5.97;;;4.73;;
5499;SDS011;2772;42.700;23.304;2022-09-03T14:34:17;6.63;;;5.10;;
5499;SDS011;2772;42.700;23.304;2022-09-03T14:37:00;6.53;;;4.47;;
5499;SDS011;2772;42.700;23.304;2022-09-03T14:39:33;4.67;;;4.33;;
5499;SDS011;2772;42.700;23.304;2022-09-03T14:42:17;5.17;;;4.77;;
5499;SDS011;2772;42.700;23.304;2022-09-03T14:45:24;3.97;;;3.77;;
5499;SDS011;2772;42.700;23.304;2022-09-03T14:51:25;3.80;;;3.60;;
5499;SDS011;2772;42.700;23.304;2022-09-03T14:54:13;4.80;;;4.10;;
5499;SDS011;2772;42.700;23.304;2022-09-03T14:56:59;4.33;;;3.93;;
5499;SDS011;2772;42.700;23.304;2022-09-03T14:59:49;3.73;;;3.53;;
5499;SDS011;2772;42.700;23.304;2022-09-03T15:05:40;4.00;;;3.80;;
5499;SDS011;2772;42.700;23.304;2022-09-03T15:08:14;4.00;;;3.70;;
5499;SDS011;2772;42.700;23.304;2022-09-03T15:10:54;4.10;;;3.80;;
5499;SDS011;2772;42.700;23.304;2022-09-03T15:13:24;4.53;;;3.80;;
5499;SDS011;2772;42.700;23.304;2022-09-03T15:15:58;4.63;;;4.20;;
5499;SDS011;2772;42.700;23.304;2022-09-03T15:18:37;4.37;;;3.97;;
5499;SDS011;2772;42.700;23.304;2022-09-03T15:21:32;4.40;;;4.10;;
5499;SDS011;2772;42.700;23.304;2022-09-03T15:24:12;6.07;;;5.53;;
5499;SDS011;2772;42.700;23.304;2022-09-03T15:27:05;5.20;;;4.70;;
5499;SDS011;2772;42.700;23.304;2022-09-03T15:29:46;4.78;;;4.38;;
5499;SDS011;2772;42.700;23.304;2022-09-03T15:32:20;4.90;;;4.60;;
5499;SDS011;2772;42.700;23.304;2022-09-03T15:35:03;8.70;;;4.90;;
5499;SDS011;2772;42.700;23.304;2022-09-03T15:37:35;9.63;;;5.93;;
5499;SDS011;2772;42.700;23.304;2022-09-03T15:40:09;5.13;;;4.63;;
5499;SDS011;2772;42.700;23.304;2022-09-03T15:42:50;5.27;;;4.83;;
5499;SDS011;2772;42.700;23.304;2022-09-03T15:45:24;8.53;;;6.47;;